Time;durP1;ratioP1;P1;durP2;ratioP2;P2;SDS_P1;SDS_P2;PMS_P1;PMS_P2;Temp;Humidity;BMP_temperature;BMP_pressure;BME280_temperature;BME280_humidity;BME280_pressure;Samples;Min_cycle;Max_cycle;Signal;HPM_P1;HPM_P2
2023/10/27 00:00:49;;;;;;;27.42;15.80;;;;;;;;;;5044425;28;20033;-72
2023/10/27 00:03:15;;;;;;;32.80;16.88;;;;;;;;;;5048667;28;20033;-72
2023/10/27 00:05:41;;;;;;;29.38;17.45;;;;;;;;;;5052321;28;20613;-72
2023/10/27 00:08:08;;;;;;;30.85;16.52;;;;;;;;;;5051591;28;20037;-72
2023/10/27 00:10:37;;;;;;;28.23;15.68;;;;;;;;;;5050827;28;20034;-72
2023/10/27 00:13:02;;;;;;;27.48;16.15;;;;;;;;;;5045809;28;20041;-72
2023/10/27 00:15:28;;;;;;;28.65;16.45;;;;;;;;;;5050387;28;20042;-72
2023/10/27 00:17:56;;;;;;;27.98;15.90;;;;;;;;;;5049139;28;20036;-72
2023/10/27 00:20:23;;;;;;;30.30;15.85;;;;;;;;;;5046232;28;20044;-72
2023/10/27 00:22:49;;;;;;;31.20;15.93;;;;;;;;;;5053591;28;20041;-72
2023/10/27 00:25:15;;;;;;;29.85;15.73;;;;;;;;;;5048812;28;20029;-72
2023/10/27 00:27:41;;;;;;;30.55;16.02;;;;;;;;;;5049297;28;20047;-72
2023/10/27 00:30:08;;;;;;;30.67;16.02;;;;;;;;;;5048058;28;20518;-72
2023/10/27 00:32:34;;;;;;;26.88;15.75;;;;;;;;;;5044034;28;20073;-72
2023/10/27 00:35:00;;;;;;;30.10;15.18;;;;;;;;;;5050154;28;20041;-72
2023/10/27 00:37:26;;;;;;;27.15;15.35;;;;;;;;;;5051347;28;20086;-72
2023/10/27 00:39:52;;;;;;;27.23;15.70;;;;;;;;;;5047733;28;20439;-72
2023/10/27 00:42:18;;;;;;;29.42;15.52;;;;;;;;;;5055213;28;20029;-72
2023/10/27 00:44:44;;;;;;;27.25;15.00;;;;;;;;;;5040302;28;20048;-72
2023/10/27 00:47:11;;;;;;;29.27;15.95;;;;;;;;;;5041949;28;20403;-72
2023/10/27 00:49:37;;;;;;;28.73;15.45;;;;;;;;;;5045034;28;20102;-72
2023/10/27 00:52:04;;;;;;;29.48;16.42;;;;;;;;;;5049538;28;20037;-72
2023/10/27 00:54:30;;;;;;;29.02;16.35;;;;;;;;;;5045558;28;20057;-72
2023/10/27 00:56:56;;;;;;;31.38;16.70;;;;;;;;;;5042228;28;20041;-72
2023/10/27 00:59:22;;;;;;;31.73;16.73;;;;;;;;;;5041401;28;20400;-72
2023/10/27 01:01:48;;;;;;;26.95;14.68;;;;;;;;;;5046342;28;20044;-72
2023/10/27 01:04:14;;;;;;;29.85;16.48;;;;;;;;;;5045723;28;20037;-72
2023/10/27 01:06:40;;;;;;;32.95;17.20;;;;;;;;;;5047821;28;20029;-72
2023/10/27 01:09:07;;;;;;;27.55;15.60;;;;;;;;;;5046730;28;20116;-72
2023/10/27 01:11:34;;;;;;;31.88;17.02;;;;;;;;;;5048781;28;20184;-72
2023/10/27 01:14:00;;;;;;;30.52;16.55;;;;;;;;;;5042192;28;20041;-72
2023/10/27 01:16:26;;;;;;;32.28;16.75;;;;;;;;;;5046020;28;20075;-72
2023/10/27 01:18:53;;;;;;;31.90;17.05;;;;;;;;;;5042115;28;20114;-72
2023/10/27 01:21:19;;;;;;;31.38;17.08;;;;;;;;;;5041949;28;20041;-72
2023/10/27 01:23:45;;;;;;;32.15;16.77;;;;;;;;;;5041413;28;20124;-72
2023/10/27 01:26:11;;;;;;;32.25;16.13;;;;;;;;;;5042835;28;20231;-72
2023/10/27 01:28:37;;;;;;;29.10;16.02;;;;;;;;;;5046176;28;20040;-72
2023/10/27 01:31:03;;;;;;;30.42;16.33;;;;;;;;;;5047104;28;20451;-72
2023/10/27 01:33:29;;;;;;;31.73;17.27;;;;;;;;;;5047689;28;20043;-72
2023/10/27 01:35:55;;;;;;;31.95;17.10;;;;;;;;;;5048577;28;20315;-72
2023/10/27 01:38:21;;;;;;;35.55;18.13;;;;;;;;;;5049264;28;20057;-72
2023/10/27 01:40:47;;;;;;;36.65;18.23;;;;;;;;;;5050183;28;20052;-72
2023/10/27 01:43:13;;;;;;;30.63;16.88;;;;;;;;;;5043253;28;20041;-72
2023/10/27 01:45:39;;;;;;;37.08;18.00;;;;;;;;;;5051475;28;20040;-72
2023/10/27 01:48:05;;;;;;;34.10;16.55;;;;;;;;;;5053084;28;20549;-72
2023/10/27 01:50:31;;;;;;;33.83;17.52;;;;;;;;;;5053405;28;20095;-72
2023/10/27 01:52:57;;;;;;;33.00;17.13;;;;;;;;;;5047597;28;20492;-72
2023/10/27 01:55:24;;;;;;;32.33;16.50;;;;;;;;;;5048072;28;20036;-72
2023/10/27 01:57:50;;;;;;;34.03;16.83;;;;;;;;;;5044921;28;20048;-72
2023/10/27 02:00:16;;;;;;;34.95;18.08;;;;;;;;;;5046176;28;20395;-72
2023/10/27 02:02:42;;;;;;;35.47;17.20;;;;;;;;;;5041574;28;20045;-72
2023/10/27 02:05:09;;;;;;;34.83;17.80;;;;;;;;;;5049545;28;20048;-72
2023/10/27 02:07:35;;;;;;;37.42;18.45;;;;;;;;;;5051378;28;20048;-72
2023/10/27 02:10:01;;;;;;;31.77;17.17;;;;;;;;;;5051927;28;20033;-72
2023/10/27 02:12:27;;;;;;;31.83;17.63;;;;;;;;;;5048255;28;20037;-72
2023/10/27 02:14:53;;;;;;;33.40;16.77;;;;;;;;;;5047762;28;20095;-72
2023/10/27 02:17:19;;;;;;;35.05;17.48;;;;;;;;;;5048601;28;20130;-72
2023/10/27 02:19:45;;;;;;;35.35;18.30;;;;;;;;;;5051225;28;20032;-72
2023/10/27 02:22:11;;;;;;;34.20;17.80;;;;;;;;;;5040901;28;20045;-72
2023/10/27 02:24:43;;;;;;;34.85;18.40;;;;;;;;;;5048028;28;20041;-72
2023/10/27 02:27:09;;;;;;;39.78;18.20;;;;;;;;;;5050631;28;20064;-72
2023/10/27 02:29:35;;;;;;;38.65;18.65;;;;;;;;;;5039613;28;20112;-72
2023/10/27 02:32:01;;;;;;;35.55;17.67;;;;;;;;;;5050878;28;20048;-72
2023/10/27 02:34:27;;;;;;;36.90;18.08;;;;;;;;;;5050964;28;20450;-72
2023/10/27 02:36:53;;;;;;;35.35;17.85;;;;;;;;;;5050195;28;20040;-72
2023/10/27 02:39:19;;;;;;;35.97;18.85;;;;;;;;;;5041519;28;20099;-72
2023/10/27 02:41:45;;;;;;;36.92;18.45;;;;;;;;;;5044271;28;20041;-72
2023/10/27 02:44:12;;;;;;;35.95;17.73;;;;;;;;;;5051316;28;20037;-72
2023/10/27 02:46:38;;;;;;;35.78;17.52;;;;;;;;;;5051437;28;20045;-72
2023/10/27 02:49:04;;;;;;;34.35;16.42;;;;;;;;;;5042757;28;20071;-72
2023/10/27 02:51:31;;;;;;;34.22;17.52;;;;;;;;;;5051664;28;20060;-72
2023/10/27 02:53:57;;;;;;;35.83;16.60;;;;;;;;;;5049190;28;20099;-72
2023/10/27 02:56:23;;;;;;;35.13;17.05;;;;;;;;;;5051488;28;20117;-72
2023/10/27 02:58:50;;;;;;;35.53;16.40;;;;;;;;;;5046441;28;20515;-72
2023/10/27 03:01:16;;;;;;;36.30;17.23;;;;;;;;;;5050045;28;20037;-72
2023/10/27 03:03:43;;;;;;;35.70;16.90;;;;;;;;;;5049812;28;20041;-72
2023/10/27 03:06:10;;;;;;;34.25;16.08;;;;;;;;;;5049468;28;20033;-72
2023/10/27 03:08:36;;;;;;;37.17;16.95;;;;;;;;;;5051114;28;20519;-72
2023/10/27 03:11:02;;;;;;;33.38;16.20;;;;;;;;;;5045261;28;20036;-72
2023/10/27 03:13:28;;;;;;;32.00;16.17;;;;;;;;;;5050436;28;20052;-72
2023/10/27 03:15:54;;;;;;;36.33;16.90;;;;;;;;;;5050927;28;20501;-72
2023/10/27 03:18:20;;;;;;;31.67;15.27;;;;;;;;;;5051056;28;20041;-72
2023/10/27 03:20:46;;;;;;;29.67;15.10;;;;;;;;;;5047554;28;20041;-72
2023/10/27 03:23:12;;;;;;;33.35;15.70;;;;;;;;;;5049301;28;20463;-72
2023/10/27 03:25:38;;;;;;;31.23;16.23;;;;;;;;;;5050219;28;20037;-72
2023/10/27 03:28:04;;;;;;;33.17;15.85;;;;;;;;;;5043298;28;20067;-72
2023/10/27 03:30:30;;;;;;;31.85;16.77;;;;;;;;;;5043056;28;20494;-72
2023/10/27 03:32:56;;;;;;;31.70;15.25;;;;;;;;;;5046244;28;20048;-72
2023/10/27 03:35:22;;;;;;;32.45;16.50;;;;;;;;;;5050527;28;20118;-72
2023/10/27 03:37:48;;;;;;;31.70;15.93;;;;;;;;;;5043535;28;20041;-72
2023/10/27 03:40:14;;;;;;;29.40;15.35;;;;;;;;;;5047781;28;20060;-72
2023/10/27 03:42:40;;;;;;;31.67;15.88;;;;;;;;;;5047021;28;20128;-72
2023/10/27 03:45:07;;;;;;;31.10;15.80;;;;;;;;;;5047821;28;20116;-72
2023/10/27 03:47:33;;;;;;;28.60;15.45;;;;;;;;;;5047124;28;20048;-72
2023/10/27 03:49:59;;;;;;;31.52;16.15;;;;;;;;;;5050835;28;20033;-72
2023/10/27 03:52:25;;;;;;;33.67;15.55;;;;;;;;;;5042633;28;20121;-72
2023/10/27 03:54:50;;;;;;;30.45;14.98;;;;;;;;;;5045110;28;20041;-72
2023/10/27 03:57:16;;;;;;;29.63;14.80;;;;;;;;;;5090918;22;20013;-69
2023/10/27 03:59:42;;;;;;;29.40;15.38;;;;;;;;;;5071668;28;20438;-69
2023/10/27 04:02:08;;;;;;;30.13;15.15;;;;;;;;;;5067973;28;20051;-68
2023/10/27 04:04:35;;;;;;;29.83;15.77;;;;;;;;;;5067989;28;20059;-69
2023/10/27 04:07:01;;;;;;;27.50;14.57;;;;;;;;;;5066444;28;20040;-69
2023/10/27 04:09:27;;;;;;;30.15;16.50;;;;;;;;;;5064123;28;20198;-69
2023/10/27 04:11:53;;;;;;;30.08;15.32;;;;;;;;;;5066961;28;20032;-69
2023/10/27 04:14:19;;;;;;;29.30;15.18;;;;;;;;;;5058091;28;20398;-69
2023/10/27 04:16:46;;;;;;;25.33;13.63;;;;;;;;;;5056112;28;20051;-69
2023/10/27 04:19:12;;;;;;;31.27;15.27;;;;;;;;;;5055368;28;20380;-69
2023/10/27 04:21:38;;;;;;;31.75;14.50;;;;;;;;;;5052336;28;20044;-69
2023/10/27 04:24:04;;;;;;;31.63;16.30;;;;;;;;;;5041875;28;20128;-69
2023/10/27 04:26:30;;;;;;;28.40;15.18;;;;;;;;;;5060189;28;20502;-69
2023/10/27 04:28:56;;;;;;;33.17;15.50;;;;;;;;;;5055879;28;20044;-69
2023/10/27 04:31:23;;;;;;;28.10;15.10;;;;;;;;;;5051749;28;20399;-69
2023/10/27 04:33:49;;;;;;;29.38;15.07;;;;;;;;;;5065539;28;20557;-69
2023/10/27 04:36:15;;;;;;;32.28;16.20;;;;;;;;;;5058158;28;20036;-69
2023/10/27 04:38:42;;;;;;;29.67;14.52;;;;;;;;;;5051097;28;20036;-69
2023/10/27 04:41:09;;;;;;;27.30;15.15;;;;;;;;;;5065725;28;20095;-69
2023/10/27 04:43:36;;;;;;;26.30;14.57;;;;;;;;;;5058080;28;20951;-69
2023/10/27 04:46:02;;;;;;;24.88;13.80;;;;;;;;;;5063516;28;20403;-69
2023/10/27 04:48:28;;;;;;;27.38;13.93;;;;;;;;;;5058287;28;20177;-69
2023/10/27 04:50:58;;;;;;;30.20;14.55;;;;;;;;;;5060351;28;20582;-69
2023/10/27 04:53:25;;;;;;;30.95;16.08;;;;;;;;;;5063543;28;20051;-69
2023/10/27 04:55:51;;;;;;;29.42;14.05;;;;;;;;;;5060919;28;20076;-69
2023/10/27 04:58:17;;;;;;;27.02;14.30;;;;;;;;;;5064048;28;20047;-69
2023/10/27 05:00:43;;;;;;;28.52;14.75;;;;;;;;;;5061950;28;20041;-69
2023/10/27 05:03:09;;;;;;;30.40;15.70;;;;;;;;;;5059578;28;20076;-69
2023/10/27 05:05:35;;;;;;;32.47;15.13;;;;;;;;;;5065502;28;20098;-69
2023/10/27 05:08:01;;;;;;;34.63;17.15;;;;;;;;;;5062316;28;20036;-69
2023/10/27 05:10:27;;;;;;;33.42;16.23;;;;;;;;;;5073590;28;20486;-69
2023/10/27 05:12:55;;;;;;;33.58;16.20;;;;;;;;;;5070660;28;20058;-69
2023/10/27 05:15:21;;;;;;;33.17;16.80;;;;;;;;;;5064224;28;20041;-69
2023/10/27 05:17:47;;;;;;;36.05;16.65;;;;;;;;;;5062833;28;20033;-69
2023/10/27 05:20:13;;;;;;;39.28;18.52;;;;;;;;;;5056229;28;20500;-69
2023/10/27 05:22:39;;;;;;;32.88;15.40;;;;;;;;;;5069475;28;20498;-69
2023/10/27 05:25:06;;;;;;;35.40;17.25;;;;;;;;;;5054924;28;20075;-69
2023/10/27 05:27:33;;;;;;;34.80;17.13;;;;;;;;;;5060238;28;20055;-69
2023/10/27 05:29:59;;;;;;;34.25;17.85;;;;;;;;;;5057127;28;20434;-69
2023/10/27 05:32:25;;;;;;;36.78;18.33;;;;;;;;;;5068465;28;20952;-69
2023/10/27 05:34:52;;;;;;;36.03;17.90;;;;;;;;;;5044836;28;20200;-69
2023/10/27 05:37:19;;;;;;;36.97;16.90;;;;;;;;;;5048844;28;20070;-69
2023/10/27 05:39:44;;;;;;;34.70;16.95;;;;;;;;;;5062302;28;20051;-69
2023/10/27 05:42:10;;;;;;;36.38;18.23;;;;;;;;;;5067233;28;20410;-69
2023/10/27 05:44:37;;;;;;;40.45;18.58;;;;;;;;;;5067427;28;20043;-69
2023/10/27 05:47:03;;;;;;;34.42;17.33;;;;;;;;;;5060978;28;20395;-69
2023/10/27 05:49:29;;;;;;;34.58;17.40;;;;;;;;;;5063166;28;20111;-69
2023/10/27 05:51:55;;;;;;;39.72;18.50;;;;;;;;;;5062450;28;20141;-69
2023/10/27 05:54:21;;;;;;;39.20;18.50;;;;;;;;;;5059658;28;20041;-69
2023/10/27 05:56:48;;;;;;;39.80;19.85;;;;;;;;;;5059986;28;20033;-69
2023/10/27 05:59:14;;;;;;;41.17;19.90;;;;;;;;;;5059973;28;20060;-69
2023/10/27 06:01:40;;;;;;;38.83;18.98;;;;;;;;;;5061985;28;20033;-69
2023/10/27 06:04:06;;;;;;;39.80;18.95;;;;;;;;;;5058225;28;20029;-69
2023/10/27 06:06:32;;;;;;;40.40;18.45;;;;;;;;;;5060977;28;20123;-69
2023/10/27 06:08:58;;;;;;;37.40;18.42;;;;;;;;;;5060854;28;20029;-69
2023/10/27 06:11:24;;;;;;;37.15;18.52;;;;;;;;;;5062659;28;20033;-69
2023/10/27 06:13:50;;;;;;;36.00;18.33;;;;;;;;;;5061358;28;20064;-69
2023/10/27 06:16:16;;;;;;;37.17;18.33;;;;;;;;;;5061713;28;20486;-69
2023/10/27 06:18:42;;;;;;;35.20;16.75;;;;;;;;;;5062818;28;20048;-69
2023/10/27 06:21:08;;;;;;;34.42;17.77;;;;;;;;;;5061305;28;20060;-69
2023/10/27 06:23:34;;;;;;;35.80;18.00;;;;;;;;;;5061393;28;20044;-69
2023/10/27 06:26:00;;;;;;;38.65;18.80;;;;;;;;;;5065437;28;20342;-69
2023/10/27 06:28:26;;;;;;;35.70;17.90;;;;;;;;;;5058431;28;20044;-69
2023/10/27 06:30:52;;;;;;;37.13;17.77;;;;;;;;;;5060857;28;20086;-69
2023/10/27 06:33:18;;;;;;;37.33;18.58;;;;;;;;;;5064117;28;20449;-69
2023/10/27 06:35:44;;;;;;;37.08;19.35;;;;;;;;;;5061603;28;20043;-69
2023/10/27 06:38:10;;;;;;;37.70;17.75;;;;;;;;;;5065682;28;20032;-69
2023/10/27 06:40:36;;;;;;;36.00;18.27;;;;;;;;;;5069090;28;20372;-69
2023/10/27 06:43:03;;;;;;;34.47;17.83;;;;;;;;;;5060689;28;20032;-69
2023/10/27 06:45:29;;;;;;;38.10;18.17;;;;;;;;;;5063156;28;20037;-69
2023/10/27 06:47:55;;;;;;;37.88;18.63;;;;;;;;;;5062631;28;20509;-69
2023/10/27 06:50:21;;;;;;;36.40;17.98;;;;;;;;;;5063574;28;20116;-69
2023/10/27 06:52:47;;;;;;;52.90;20.50;;;;;;;;;;5059734;28;20044;-69
2023/10/27 06:55:12;;;;;;;39.08;18.00;;;;;;;;;;5064170;28;20033;-69
2023/10/27 06:57:39;;;;;;;35.75;17.95;;;;;;;;;;5063815;28;20033;-69
2023/10/27 07:00:06;;;;;;;35.47;16.15;;;;;;;;;;5057924;28;20045;-69
2023/10/27 07:02:32;;;;;;;34.70;17.17;;;;;;;;;;5061236;28;20434;-69
2023/10/27 07:04:58;;;;;;;32.55;16.67;;;;;;;;;;5067501;28;20032;-69
2023/10/27 07:07:24;;;;;;;33.33;16.55;;;;;;;;;;5061680;28;20037;-69
2023/10/27 07:09:50;;;;;;;34.03;16.73;;;;;;;;;;5060994;28;20033;-69
2023/10/27 07:12:16;;;;;;;34.38;16.80;;;;;;;;;;5063416;28;20032;-69
2023/10/27 07:14:44;;;;;;;34.45;16.45;;;;;;;;;;5061337;28;20516;-69
2023/10/27 07:17:10;;;;;;;34.25;17.40;;;;;;;;;;5063884;28;20052;-69
2023/10/27 07:19:36;;;;;;;34.85;17.17;;;;;;;;;;5059802;28;20045;-69
2023/10/27 07:22:03;;;;;;;35.03;17.13;;;;;;;;;;5061794;28;20099;-69
2023/10/27 07:24:32;;;;;;;37.17;16.88;;;;;;;;;;5063607;28;20036;-69
2023/10/27 07:26:58;;;;;;;35.42;16.90;;;;;;;;;;5067746;28;20033;-69
2023/10/27 07:29:24;;;;;;;33.83;16.65;;;;;;;;;;5061100;28;20029;-69
2023/10/27 07:31:50;;;;;;;36.70;17.23;;;;;;;;;;5061284;28;20167;-69
2023/10/27 07:34:16;;;;;;;32.25;15.95;;;;;;;;;;5059527;28;20032;-69
2023/10/27 07:36:42;;;;;;;34.53;16.35;;;;;;;;;;5060010;28;20442;-69
2023/10/27 07:39:09;;;;;;;34.50;16.83;;;;;;;;;;5063160;28;20041;-69
2023/10/27 07:41:37;;;;;;;30.63;14.52;;;;;;;;;;5064132;28;20123;-69
2023/10/27 07:44:04;;;;;;;32.90;15.20;;;;;;;;;;5064411;28;20056;-69
2023/10/27 07:46:31;;;;;;;32.30;16.45;;;;;;;;;;5066173;28;20126;-68
2023/10/27 07:48:57;;;;;;;30.63;16.10;;;;;;;;;;5059957;28;20040;-68
2023/10/27 07:51:23;;;;;;;32.60;15.43;;;;;;;;;;5059026;28;20493;-68
2023/10/27 07:53:50;;;;;;;33.10;16.30;;;;;;;;;;5059161;28;20063;-68
2023/10/27 07:56:18;;;;;;;35.55;17.08;;;;;;;;;;5066260;28;20038;-68
2023/10/27 07:58:44;;;;;;;32.00;15.38;;;;;;;;;;5063922;28;20119;-68
2023/10/27 08:01:10;;;;;;;38.58;17.58;;;;;;;;;;5065331;28;20032;-68
2023/10/27 08:03:36;;;;;;;32.58;16.02;;;;;;;;;;5062856;28;20475;-68
2023/10/27 08:06:07;;;;;;;33.83;17.15;;;;;;;;;;5068359;28;20060;-68
2023/10/27 08:08:33;;;;;;;34.53;17.08;;;;;;;;;;5070475;28;20044;-68
2023/10/27 08:10:59;;;;;;;36.95;16.77;;;;;;;;;;5065220;28;20037;-68
2023/10/27 08:13:25;;;;;;;35.95;16.25;;;;;;;;;;5070561;28;20036;-68
2023/10/27 08:15:51;;;;;;;32.10;15.88;;;;;;;;;;5071254;28;20064;-68
2023/10/27 08:18:17;;;;;;;32.10;16.23;;;;;;;;;;5067359;28;20090;-68
2023/10/27 08:20:43;;;;;;;32.90;16.55;;;;;;;;;;5063163;28;20048;-68
2023/10/27 08:23:09;;;;;;;31.67;15.68;;;;;;;;;;5072521;28;20036;-68
2023/10/27 08:25:36;;;;;;;31.23;15.80;;;;;;;;;;5074686;28;20044;-68
2023/10/27 08:28:03;;;;;;;29.65;15.98;;;;;;;;;;5070356;28;20052;-68
2023/10/27 08:30:29;;;;;;;30.95;15.88;;;;;;;;;;5071644;28;20076;-68
2023/10/27 08:32:55;;;;;;;28.65;15.85;;;;;;;;;;5072923;28;20083;-68
2023/10/27 08:35:21;;;;;;;29.67;15.02;;;;;;;;;;5068592;28;20075;-68
2023/10/27 08:37:47;;;;;;;31.05;15.63;;;;;;;;;;5063827;28;20516;-68
2023/10/27 08:40:13;;;;;;;31.60;16.08;;;;;;;;;;5067674;28;20502;-69
2023/10/27 08:42:45;;;;;;;32.85;15.68;;;;;;;;;;5073372;28;20040;-69
2023/10/27 08:45:11;;;;;;;31.25;15.52;;;;;;;;;;5069735;28;20043;-69
2023/10/27 08:47:37;;;;;;;30.60;15.05;;;;;;;;;;5072019;28;20032;-69
2023/10/27 08:50:04;;;;;;;32.88;15.73;;;;;;;;;;5074415;28;20094;-69
2023/10/27 08:52:30;;;;;;;29.67;15.35;;;;;;;;;;5070209;28;20547;-69
2023/10/27 08:54:56;;;;;;;35.03;17.25;;;;;;;;;;5070870;28;20079;-69
2023/10/27 08:57:22;;;;;;;33.00;16.33;;;;;;;;;;5070590;28;20471;-69
2023/10/27 08:59:50;;;;;;;32.17;15.82;;;;;;;;;;5065912;28;20028;-69
2023/10/27 09:02:27;;;;;;;33.15;15.60;;;;;;;;;;5071899;28;20037;-69
2023/10/27 09:04:59;;;;;;;29.48;15.07;;;;;;;;;;5061774;28;20040;-70
2023/10/27 09:07:25;;;;;;;30.48;14.90;;;;;;;;;;5063913;28;20067;-70
2023/10/27 09:09:52;;;;;;;32.13;16.20;;;;;;;;;;5070165;28;20040;-70
2023/10/27 09:12:29;;;;;;;29.38;14.90;;;;;;;;;;5070553;28;20097;-70
2023/10/27 09:15:08;;;;;;;28.92;14.57;;;;;;;;;;5063857;28;20037;-70
2023/10/27 09:17:52;;;;;;;30.02;15.18;;;;;;;;;;5062410;28;20118;-69
2023/10/27 09:20:20;;;;;;;29.65;14.77;;;;;;;;;;5063713;28;20041;-69
2023/10/27 09:23:15;;;;;;;28.10;13.85;;;;;;;;;;5069677;28;20044;-69
2023/10/27 09:25:41;;;;;;;31.75;14.98;;;;;;;;;;5056082;28;20056;-68
2023/10/27 09:28:07;;;;;;;27.15;14.13;;;;;;;;;;5064960;28;20445;-68
2023/10/27 09:30:34;;;;;;;29.38;14.02;;;;;;;;;;5065878;28;20041;-70
2023/10/27 09:33:12;;;;;;;28.75;14.35;;;;;;;;;;5059357;28;20126;-70
2023/10/27 09:35:38;;;;;;;27.33;13.95;;;;;;;;;;5064668;28;20116;-70
2023/10/27 09:38:04;;;;;;;29.75;14.07;;;;;;;;;;5065199;28;20067;-70
2023/10/27 09:40:31;;;;;;;26.75;14.25;;;;;;;;;;5066871;28;20076;-70
2023/10/27 09:43:00;;;;;;;29.73;14.75;;;;;;;;;;5062079;28;20036;-70
2023/10/27 09:45:28;;;;;;;29.30;14.85;;;;;;;;;;5070977;28;20036;-70
2023/10/27 09:47:58;;;;;;;28.38;14.15;;;;;;;;;;5058462;28;20033;-70
2023/10/27 09:50:25;;;;;;;30.60;14.40;;;;;;;;;;5067146;28;20090;-70
2023/10/27 09:52:51;;;;;;;27.95;13.77;;;;;;;;;;5064667;28;20097;-70
2023/10/27 09:55:19;;;;;;;28.77;14.50;;;;;;;;;;5064648;28;20056;-70
2023/10/27 09:57:45;;;;;;;27.42;14.15;;;;;;;;;;5078576;22;20068;-71
2023/10/27 10:00:13;;;;;;;32.45;15.57;;;;;;;;;;5079801;28;20032;-71
2023/10/27 10:02:41;;;;;;;27.83;13.85;;;;;;;;;;5074191;28;20079;-72
2023/10/27 10:05:09;;;;;;;29.92;14.65;;;;;;;;;;5077658;28;20037;-72
2023/10/27 10:07:37;;;;;;;27.98;13.95;;;;;;;;;;5078496;28;20036;-74
2023/10/27 10:10:22;;;;;;;26.75;13.35;;;;;;;;;;5078963;28;20040;-72
2023/10/27 10:13:04;;;;;;;29.42;15.27;;;;;;;;;;5060268;28;20375;-72
2023/10/27 10:15:34;;;;;;;29.30;14.82;;;;;;;;;;5064902;28;20040;-72
2023/10/27 10:18:01;;;;;;;32.60;15.45;;;;;;;;;;5058384;28;20119;-72
2023/10/27 10:20:44;;;;;;;28.45;15.00;;;;;;;;;;5063609;28;20478;-72
2023/10/27 10:23:10;;;;;;;29.20;14.90;;;;;;;;;;5056843;28;20041;-72
2023/10/27 10:25:36;;;;;;;31.35;15.40;;;;;;;;;;5059231;28;20119;-72
2023/10/27 10:28:08;;;;;;;32.67;15.43;;;;;;;;;;5063974;28;20043;-72
2023/10/27 10:30:38;;;;;;;35.53;16.35;;;;;;;;;;5064392;28;20040;-72
2023/10/27 10:33:16;;;;;;;32.75;15.35;;;;;;;;;;5065609;28;20087;-72
2023/10/27 10:35:46;;;;;;;33.70;16.45;;;;;;;;;;5066306;28;20548;-72
2023/10/27 10:38:24;;;;;;;32.05;16.33;;;;;;;;;;5060905;28;20119;-72
2023/10/27 10:40:51;;;;;;;30.23;15.88;;;;;;;;;;5064823;28;20119;-72
2023/10/27 10:43:23;;;;;;;36.85;17.70;;;;;;;;;;5062879;28;20040;-72
2023/10/27 10:45:53;;;;;;;34.95;16.70;;;;;;;;;;5049364;28;20044;-72
2023/10/27 10:48:19;;;;;;;35.67;17.58;;;;;;;;;;5058201;28;20080;-72
2023/10/27 10:50:46;;;;;;;36.45;17.00;;;;;;;;;;5065294;28;20051;-72
2023/10/27 10:53:17;;;;;;;33.30;15.55;;;;;;;;;;5063821;28;20040;-72
2023/10/27 10:55:44;;;;;;;32.85;16.38;;;;;;;;;;5054980;28;20041;-72
2023/10/27 10:58:10;;;;;;;36.67;17.38;;;;;;;;;;5063848;28;20383;-72
2023/10/27 11:00:36;;;;;;;37.30;17.05;;;;;;;;;;5071841;28;20051;-72
2023/10/27 11:03:06;;;;;;;31.95;16.75;;;;;;;;;;5067103;28;20052;-72
2023/10/27 11:05:32;;;;;;;31.88;15.57;;;;;;;;;;5063961;28;20487;-72
2023/10/27 11:07:58;;;;;;;31.55;16.20;;;;;;;;;;5063044;28;20033;-71
2023/10/27 11:10:25;;;;;;;33.95;16.83;;;;;;;;;;5068345;28;20556;-72
2023/10/27 11:12:51;;;;;;;31.35;17.15;;;;;;;;;;5060024;28;20115;-73
2023/10/27 11:15:36;;;;;;;32.92;16.98;;;;;;;;;;5058729;28;20386;-72
2023/10/27 11:18:11;;;;;;;29.00;14.98;;;;;;;;;;5064346;28;20099;-72
2023/10/27 11:20:37;;;;;;;33.53;16.83;;;;;;;;;;5062299;28;20115;-72
2023/10/27 11:23:07;;;;;;;32.00;16.75;;;;;;;;;;5061155;28;20029;-71
2023/10/27 11:25:35;;;;;;;34.65;16.45;;;;;;;;;;5058241;28;20140;-71
2023/10/27 11:28:39;;;;;;;32.22;16.63;;;;;;;;;;5050762;28;20531;-72
2023/10/27 11:31:13;;;;;;;29.35;15.38;;;;;;;;;;5004740;28;20096;-72
2023/10/27 11:33:57;;;;;;;31.92;15.25;;;;;;;;;;5005724;28;20169;-72
2023/10/27 11:36:24;;;;;;;31.05;15.95;;;;;;;;;;5038577;28;20052;-72
2023/10/27 11:38:50;;;;;;;33.50;16.95;;;;;;;;;;5060077;28;20037;-72
2023/10/27 11:41:16;;;;;;;31.30;16.50;;;;;;;;;;5050367;28;20032;-71
2023/10/27 11:43:42;;;;;;;31.50;16.77;;;;;;;;;;5062540;28;20040;-71
2023/10/27 11:46:09;;;;;;;31.55;16.13;;;;;;;;;;5061014;28;20036;-72
2023/10/27 11:48:35;;;;;;;30.92;15.80;;;;;;;;;;5065651;28;20376;-71
2023/10/27 11:51:01;;;;;;;28.73;14.95;;;;;;;;;;5063151;28;20111;-72
2023/10/27 11:53:27;;;;;;;29.60;16.95;;;;;;;;;;5067269;28;20036;-71
2023/10/27 11:55:53;;;;;;;44.08;24.73;;;;;;;;;;5060598;28;20037;-72
2023/10/27 11:58:19;;;;;;;30.58;15.30;;;;;;;;;;5067244;28;20391;-72
2023/10/27 12:00:45;;;;;;;29.13;15.43;;;;;;;;;;5069700;28;20040;-72
2023/10/27 12:03:10;;;;;;;35.20;18.08;;;;;;;;;;5063600;28;20041;-71
2023/10/27 12:05:36;;;;;;;38.10;20.60;;;;;;;;;;5064401;28;20424;-71
2023/10/27 12:08:02;;;;;;;26.52;14.40;;;;;;;;;;5056280;28;20064;-72
2023/10/27 12:10:32;;;;;;;28.70;14.68;;;;;;;;;;5064429;28;20503;-71
2023/10/27 12:12:58;;;;;;;28.45;16.75;;;;;;;;;;5060517;28;20058;-71
2023/10/27 12:15:24;;;;;;;27.25;15.13;;;;;;;;;;5056452;28;20129;-71
2023/10/27 12:17:51;;;;;;;28.55;15.10;;;;;;;;;;5053323;28;20161;-71
2023/10/27 12:20:20;;;;;;;27.83;15.63;;;;;;;;;;5062670;28;20048;-72
2023/10/27 12:22:46;;;;;;;28.40;15.60;;;;;;;;;;5065736;28;20090;-72
2023/10/27 12:25:12;;;;;;;27.42;14.35;;;;;;;;;;5067912;28;20470;-72
2023/10/27 12:27:39;;;;;;;27.67;14.68;;;;;;;;;;5058176;28;20036;-72
2023/10/27 12:30:05;;;;;;;30.88;15.50;;;;;;;;;;5063713;28;20033;-72
2023/10/27 12:32:35;;;;;;;31.42;15.40;;;;;;;;;;5061194;28;20040;-73
2023/10/27 12:35:01;;;;;;;28.35;14.82;;;;;;;;;;5051311;28;20045;-73
2023/10/27 12:37:27;;;;;;;27.75;14.90;;;;;;;;;;5066800;28;20048;-72
2023/10/27 12:39:53;;;;;;;29.13;15.13;;;;;;;;;;5062397;28;20142;-73
2023/10/27 12:42:19;;;;;;;26.98;13.15;;;;;;;;;;5068940;28;20044;-73
2023/10/27 12:44:46;;;;;;;28.35;14.48;;;;;;;;;;5066334;28;20544;-72
2023/10/27 12:47:11;;;;;;;28.33;14.38;;;;;;;;;;5053428;28;20107;-71
2023/10/27 12:49:38;;;;;;;23.40;12.57;;;;;;;;;;5058426;28;20060;-72
2023/10/27 12:52:05;;;;;;;26.98;14.77;;;;;;;;;;5057853;28;20049;-72
2023/10/27 12:54:35;;;;;;;25.08;13.15;;;;;;;;;;5073831;28;20462;-72
2023/10/27 12:57:01;;;;;;;25.30;14.10;;;;;;;;;;5061797;28;20067;-72
2023/10/27 12:59:27;;;;;;;26.83;15.00;;;;;;;;;;5062400;28;20087;-72
2023/10/27 13:01:53;;;;;;;25.67;13.25;;;;;;;;;;5065091;28;20041;-71
2023/10/27 13:04:19;;;;;;;25.90;13.32;;;;;;;;;;5061114;28;20079;-71
2023/10/27 13:06:45;;;;;;;21.90;12.68;;;;;;;;;;5072195;28;20036;-71
2023/10/27 13:09:11;;;;;;;21.58;11.98;;;;;;;;;;5055798;28;20402;-72
2023/10/27 13:11:38;;;;;;;24.65;12.77;;;;;;;;;;5064976;28;20037;-71
2023/10/27 13:14:04;;;;;;;24.95;12.60;;;;;;;;;;5061140;28;20411;-71
2023/10/27 13:16:30;;;;;;;25.52;12.43;;;;;;;;;;5064239;28;20209;-71
2023/10/27 13:18:57;;;;;;;23.77;12.52;;;;;;;;;;5064441;28;20061;-71
2023/10/27 13:21:22;;;;;;;23.65;12.45;;;;;;;;;;5065986;28;20036;-72
2023/10/27 13:23:49;;;;;;;28.27;13.00;;;;;;;;;;5062163;28;20049;-72
2023/10/27 13:26:15;;;;;;;28.02;13.82;;;;;;;;;;5065436;28;20036;-72
2023/10/27 13:28:41;;;;;;;24.90;13.23;;;;;;;;;;5066496;28;20398;-72
2023/10/27 13:31:07;;;;;;;24.08;12.98;;;;;;;;;;5070880;28;20442;-72
2023/10/27 13:33:33;;;;;;;23.40;12.70;;;;;;;;;;5064650;28;20442;-71
2023/10/27 13:36:00;;;;;;;24.10;13.00;;;;;;;;;;5066901;28;20502;-72
2023/10/27 13:38:27;;;;;;;22.90;13.13;;;;;;;;;;5063306;28;20036;-72
2023/10/27 13:40:53;;;;;;;23.33;12.40;;;;;;;;;;5063161;28;20163;-72
2023/10/27 13:43:21;;;;;;;22.35;12.50;;;;;;;;;;5069125;28;20552;-72
2023/10/27 13:45:47;;;;;;;26.35;13.50;;;;;;;;;;5060214;28;20040;-72
2023/10/27 13:48:14;;;;;;;23.00;12.63;;;;;;;;;;5061500;28;20040;-72
2023/10/27 13:50:40;;;;;;;24.10;12.02;;;;;;;;;;5072852;28;20041;-72
2023/10/27 13:53:08;;;;;;;22.65;10.85;;;;;;;;;;5066728;28;20151;-71
2023/10/27 13:55:35;;;;;;;23.48;12.43;;;;;;;;;;5056286;28;20056;-71
2023/10/27 13:58:02;;;;;;;21.85;11.93;;;;;;;;;;5066626;28;20056;-72
2023/10/27 14:00:29;;;;;;;19.15;10.93;;;;;;;;;;5067720;28;20040;-71
2023/10/27 14:02:56;;;;;;;22.15;11.77;;;;;;;;;;5066151;28;20529;-71
2023/10/27 14:05:23;;;;;;;22.70;11.50;;;;;;;;;;5066096;28;20048;-71
2023/10/27 14:07:49;;;;;;;21.30;11.23;;;;;;;;;;5066622;28;20044;-73
2023/10/27 14:10:15;;;;;;;20.20;10.60;;;;;;;;;;5060028;28;20044;-72
2023/10/27 14:12:43;;;;;;;22.15;11.18;;;;;;;;;;5057246;28;20051;-71
2023/10/27 14:15:13;;;;;;;19.60;10.68;;;;;;;;;;5069655;28;20040;-72